sensor_id;sensor_type;location;lat;lon;timestamp;P1;durP1;ratioP1;P2;durP2;ratioP2
64653;SDS011;51065;48.884;12.598;2023-08-20T00:01:23;11.45;;;5.30;;
64653;SDS011;51065;48.884;12.598;2023-08-20T00:03:51;7.63;;;4.55;;
64653;SDS011;51065;48.884;12.598;2023-08-20T00:06:17;8.65;;;5.00;;
64653;SDS011;51065;48.884;12.598;2023-08-20T00:08:43;8.13;;;4.75;;
64653;SDS011;51065;48.884;12.598;2023-08-20T00:11:10;8.55;;;5.03;;
64653;SDS011;51065;48.884;12.598;2023-08-20T00:13:36;9.30;;;4.90;;
64653;SDS011;51065;48.884;12.598;2023-08-20T00:16:02;8.32;;;4.57;;
64653;SDS011;51065;48.884;12.598;2023-08-20T00:18:28;9.50;;;4.63;;
64653;SDS011;51065;48.884;12.598;2023-08-20T00:20:54;7.43;;;4.22;;
64653;SDS011;51065;48.884;12.598;2023-08-20T00:23:20;8.80;;;4.53;;
64653;SDS011;51065;48.884;12.598;2023-08-20T00:25:47;6.43;;;3.97;;
64653;SDS011;51065;48.884;12.598;2023-08-20T00:28:13;8.00;;;4.50;;
64653;SDS011;51065;48.884;12.598;2023-08-20T00:30:38;6.75;;;4.25;;
64653;SDS011;51065;48.884;12.598;2023-08-20T00:33:04;8.60;;;4.68;;
64653;SDS011;51065;48.884;12.598;2023-08-20T00:35:30;7.05;;;4.05;;
64653;SDS011;51065;48.884;12.598;2023-08-20T00:37:56;8.85;;;4.45;;
64653;SDS011;51065;48.884;12.598;2023-08-20T00:40:21;8.40;;;4.50;;
64653;SDS011;51065;48.884;12.598;2023-08-20T00:42:47;7.82;;;4.38;;
64653;SDS011;51065;48.884;12.598;2023-08-20T00:45:13;8.95;;;4.28;;
64653;SDS011;51065;48.884;12.598;2023-08-20T00:47:38;9.02;;;4.15;;
64653;SDS011;51065;48.884;12.598;2023-08-20T00:50:05;8.68;;;4.45;;
64653;SDS011;51065;48.884;12.598;2023-08-20T00:52:32;8.27;;;4.55;;
64653;SDS011;51065;48.884;12.598;2023-08-20T00:54:59;7.85;;;4.25;;
64653;SDS011;51065;48.884;12.598;2023-08-20T00:57:25;6.85;;;4.30;;
64653;SDS011;51065;48.884;12.598;2023-08-20T00:59:51;9.23;;;4.57;;
64653;SDS011;51065;48.884;12.598;2023-08-20T01:02:20;7.00;;;4.53;;
64653;SDS011;51065;48.884;12.598;2023-08-20T01:04:46;7.55;;;4.32;;
64653;SDS011;51065;48.884;12.598;2023-08-20T01:11:00;9.05;;;4.38;;
64653;SDS011;51065;48.884;12.598;2023-08-20T01:13:04;8.48;;;4.57;;
64653;SDS011;51065;48.884;12.598;2023-08-20T01:15:32;11.65;;;5.00;;
64653;SDS011;51065;48.884;12.598;2023-08-20T01:17:57;10.77;;;5.05;;
64653;SDS011;51065;48.884;12.598;2023-08-20T01:20:25;8.98;;;4.80;;
64653;SDS011;51065;48.884;12.598;2023-08-20T01:22:59;10.18;;;4.50;;
64653;SDS011;51065;48.884;12.598;2023-08-20T01:28:26;9.75;;;5.05;;
64653;SDS011;51065;48.884;12.598;2023-08-20T01:30:54;8.45;;;4.13;;
64653;SDS011;51065;48.884;12.598;2023-08-20T01:33:22;9.20;;;4.65;;
64653;SDS011;51065;48.884;12.598;2023-08-20T01:35:49;7.47;;;4.13;;
64653;SDS011;51065;48.884;12.598;2023-08-20T01:38:16;7.47;;;3.95;;
64653;SDS011;51065;48.884;12.598;2023-08-20T01:40:44;7.45;;;4.15;;
64653;SDS011;51065;48.884;12.598;2023-08-20T01:43:10;9.45;;;4.63;;
64653;SDS011;51065;48.884;12.598;2023-08-20T01:45:36;7.32;;;4.43;;
64653;SDS011;51065;48.884;12.598;2023-08-20T01:48:01;11.30;;;4.22;;
64653;SDS011;51065;48.884;12.598;2023-08-20T01:50:28;9.77;;;4.80;;
64653;SDS011;51065;48.884;12.598;2023-08-20T01:52:54;8.90;;;4.30;;
64653;SDS011;51065;48.884;12.598;2023-08-20T01:55:20;8.32;;;4.45;;
64653;SDS011;51065;48.884;12.598;2023-08-20T01:57:45;8.60;;;4.63;;
64653;SDS011;51065;48.884;12.598;2023-08-20T02:00:11;9.05;;;4.75;;
64653;SDS011;51065;48.884;12.598;2023-08-20T02:02:37;8.63;;;4.53;;
64653;SDS011;51065;48.884;12.598;2023-08-20T02:05:03;8.57;;;5.03;;
64653;SDS011;51065;48.884;12.598;2023-08-20T02:07:29;9.32;;;4.38;;
64653;SDS011;51065;48.884;12.598;2023-08-20T02:09:54;10.88;;;4.90;;
64653;SDS011;51065;48.884;12.598;2023-08-20T02:12:20;8.20;;;4.13;;
64653;SDS011;51065;48.884;12.598;2023-08-20T02:14:45;8.05;;;4.85;;
64653;SDS011;51065;48.884;12.598;2023-08-20T02:17:11;10.15;;;4.88;;
64653;SDS011;51065;48.884;12.598;2023-08-20T02:19:37;9.23;;;4.38;;
64653;SDS011;51065;48.884;12.598;2023-08-20T02:22:03;8.07;;;4.63;;
64653;SDS011;51065;48.884;12.598;2023-08-20T02:24:29;7.68;;;4.38;;
64653;SDS011;51065;48.884;12.598;2023-08-20T02:26:55;10.43;;;5.00;;
64653;SDS011;51065;48.884;12.598;2023-08-20T02:29:20;9.98;;;4.88;;
64653;SDS011;51065;48.884;12.598;2023-08-20T02:31:46;9.18;;;4.28;;
64653;SDS011;51065;48.884;12.598;2023-08-20T02:34:11;10.38;;;4.30;;
64653;SDS011;51065;48.884;12.598;2023-08-20T02:36:37;8.00;;;4.40;;
64653;SDS011;51065;48.884;12.598;2023-08-20T02:39:03;8.65;;;4.53;;
64653;SDS011;51065;48.884;12.598;2023-08-20T02:41:32;9.27;;;4.60;;
64653;SDS011;51065;48.884;12.598;2023-08-20T02:43:59;7.82;;;4.70;;
64653;SDS011;51065;48.884;12.598;2023-08-20T02:46:25;9.90;;;5.13;;
64653;SDS011;51065;48.884;12.598;2023-08-20T02:48:51;9.77;;;4.63;;
64653;SDS011;51065;48.884;12.598;2023-08-20T02:51:16;11.40;;;5.40;;
64653;SDS011;51065;48.884;12.598;2023-08-20T02:53:42;10.40;;;5.30;;
64653;SDS011;51065;48.884;12.598;2023-08-20T02:56:08;13.65;;;5.32;;
64653;SDS011;51065;48.884;12.598;2023-08-20T02:58:33;9.13;;;4.55;;
64653;SDS011;51065;48.884;12.598;2023-08-20T03:00:59;8.63;;;4.53;;
64653;SDS011;51065;48.884;12.598;2023-08-20T03:03:25;10.77;;;5.47;;
64653;SDS011;51065;48.884;12.598;2023-08-20T03:05:50;11.00;;;4.78;;
64653;SDS011;51065;48.884;12.598;2023-08-20T03:08:16;8.93;;;4.82;;
64653;SDS011;51065;48.884;12.598;2023-08-20T03:10:42;9.45;;;5.30;;
64653;SDS011;51065;48.884;12.598;2023-08-20T03:13:07;8.73;;;4.72;;
64653;SDS011;51065;48.884;12.598;2023-08-20T03:15:33;10.82;;;5.07;;
64653;SDS011;51065;48.884;12.598;2023-08-20T03:17:58;9.35;;;4.82;;
64653;SDS011;51065;48.884;12.598;2023-08-20T03:20:24;10.18;;;4.90;;
64653;SDS011;51065;48.884;12.598;2023-08-20T03:22:50;8.75;;;4.60;;
64653;SDS011;51065;48.884;12.598;2023-08-20T03:25:15;8.65;;;4.80;;
64653;SDS011;51065;48.884;12.598;2023-08-20T03:27:41;8.90;;;4.70;;
64653;SDS011;51065;48.884;12.598;2023-08-20T03:30:07;8.82;;;4.63;;
64653;SDS011;51065;48.884;12.598;2023-08-20T03:32:33;8.43;;;4.70;;
64653;SDS011;51065;48.884;12.598;2023-08-20T03:34:58;8.57;;;4.45;;
64653;SDS011;51065;48.884;12.598;2023-08-20T03:37:27;8.38;;;4.65;;
64653;SDS011;51065;48.884;12.598;2023-08-20T03:39:53;8.20;;;4.60;;
64653;SDS011;51065;48.884;12.598;2023-08-20T03:42:18;9.20;;;4.47;;
64653;SDS011;51065;48.884;12.598;2023-08-20T03:44:44;7.93;;;4.47;;
64653;SDS011;51065;48.884;12.598;2023-08-20T03:47:09;7.97;;;4.47;;
64653;SDS011;51065;48.884;12.598;2023-08-20T03:49:35;8.52;;;4.50;;
64653;SDS011;51065;48.884;12.598;2023-08-20T03:52:01;9.00;;;4.82;;
64653;SDS011;51065;48.884;12.598;2023-08-20T03:54:30;8.38;;;4.53;;
64653;SDS011;51065;48.884;12.598;2023-08-20T03:56:55;7.88;;;4.47;;
64653;SDS011;51065;48.884;12.598;2023-08-20T03:59:21;9.48;;;4.50;;
64653;SDS011;51065;48.884;12.598;2023-08-20T04:01:47;8.70;;;4.40;;
64653;SDS011;51065;48.884;12.598;2023-08-20T04:04:14;7.85;;;4.43;;
64653;SDS011;51065;48.884;12.598;2023-08-20T04:06:39;10.20;;;5.38;;
64653;SDS011;51065;48.884;12.598;2023-08-20T04:09:05;11.55;;;5.13;;
64653;SDS011;51065;48.884;12.598;2023-08-20T04:11:31;8.55;;;4.90;;
64653;SDS011;51065;48.884;12.598;2023-08-20T04:13:57;9.63;;;5.20;;
64653;SDS011;51065;48.884;12.598;2023-08-20T04:16:25;7.57;;;4.85;;
64653;SDS011;51065;48.884;12.598;2023-08-20T04:18:51;9.65;;;5.30;;
64653;SDS011;51065;48.884;12.598;2023-08-20T04:21:16;8.70;;;5.00;;
64653;SDS011;51065;48.884;12.598;2023-08-20T04:23:42;10.73;;;5.50;;
64653;SDS011;51065;48.884;12.598;2023-08-20T04:26:07;9.27;;;4.85;;
64653;SDS011;51065;48.884;12.598;2023-08-20T04:28:33;9.95;;;5.20;;
64653;SDS011;51065;48.884;12.598;2023-08-20T04:30:59;8.23;;;4.50;;
64653;SDS011;51065;48.884;12.598;2023-08-20T04:33:25;9.27;;;4.93;;
64653;SDS011;51065;48.884;12.598;2023-08-20T04:35:51;9.38;;;5.20;;
64653;SDS011;51065;48.884;12.598;2023-08-20T04:38:17;9.60;;;5.25;;
64653;SDS011;51065;48.884;12.598;2023-08-20T04:40:45;10.23;;;5.50;;
64653;SDS011;51065;48.884;12.598;2023-08-20T04:43:11;10.18;;;5.35;;
64653;SDS011;51065;48.884;12.598;2023-08-20T04:45:37;9.80;;;4.93;;
64653;SDS011;51065;48.884;12.598;2023-08-20T04:48:02;12.38;;;5.45;;
64653;SDS011;51065;48.884;12.598;2023-08-20T04:50:28;7.32;;;4.80;;
64653;SDS011;51065;48.884;12.598;2023-08-20T04:52:53;13.02;;;5.43;;
64653;SDS011;51065;48.884;12.598;2023-08-20T04:55:19;9.45;;;4.90;;
64653;SDS011;51065;48.884;12.598;2023-08-20T04:57:45;10.13;;;5.10;;
64653;SDS011;51065;48.884;12.598;2023-08-20T05:00:11;9.68;;;5.10;;
64653;SDS011;51065;48.884;12.598;2023-08-20T05:02:37;9.80;;;5.00;;
64653;SDS011;51065;48.884;12.598;2023-08-20T05:05:02;11.20;;;5.20;;
64653;SDS011;51065;48.884;12.598;2023-08-20T05:07:28;9.98;;;5.10;;
64653;SDS011;51065;48.884;12.598;2023-08-20T05:09:54;9.23;;;5.10;;
64653;SDS011;51065;48.884;12.598;2023-08-20T05:12:19;8.95;;;5.18;;
64653;SDS011;51065;48.884;12.598;2023-08-20T05:14:45;9.27;;;4.75;;
64653;SDS011;51065;48.884;12.598;2023-08-20T05:17:11;8.77;;;5.07;;
64653;SDS011;51065;48.884;12.598;2023-08-20T05:19:37;8.30;;;4.80;;
64653;SDS011;51065;48.884;12.598;2023-08-20T05:22:02;10.10;;;5.35;;
64653;SDS011;51065;48.884;12.598;2023-08-20T05:24:28;10.20;;;5.00;;
64653;SDS011;51065;48.884;12.598;2023-08-20T05:27:03;9.88;;;5.22;;
64653;SDS011;51065;48.884;12.598;2023-08-20T05:29:47;8.35;;;4.78;;
64653;SDS011;51065;48.884;12.598;2023-08-20T05:32:13;9.45;;;5.25;;
64653;SDS011;51065;48.884;12.598;2023-08-20T05:34:40;10.30;;;5.68;;
64653;SDS011;51065;48.884;12.598;2023-08-20T05:37:05;10.15;;;5.00;;
64653;SDS011;51065;48.884;12.598;2023-08-20T05:39:35;12.55;;;5.45;;
64653;SDS011;51065;48.884;12.598;2023-08-20T05:42:02;9.45;;;4.80;;
64653;SDS011;51065;48.884;12.598;2023-08-20T05:44:28;10.30;;;5.15;;
64653;SDS011;51065;48.884;12.598;2023-08-20T05:46:54;9.43;;;5.20;;
64653;SDS011;51065;48.884;12.598;2023-08-20T05:49:19;9.23;;;5.10;;
64653;SDS011;51065;48.884;12.598;2023-08-20T05:51:45;7.50;;;5.03;;
64653;SDS011;51065;48.884;12.598;2023-08-20T05:54:10;10.75;;;5.32;;
64653;SDS011;51065;48.884;12.598;2023-08-20T05:56:36;11.30;;;5.10;;
64653;SDS011;51065;48.884;12.598;2023-08-20T05:59:03;9.07;;;5.30;;
64653;SDS011;51065;48.884;12.598;2023-08-20T06:01:28;12.07;;;5.53;;
64653;SDS011;51065;48.884;12.598;2023-08-20T06:03:54;9.23;;;5.60;;
64653;SDS011;51065;48.884;12.598;2023-08-20T06:06:20;9.50;;;5.22;;
64653;SDS011;51065;48.884;12.598;2023-08-20T06:08:46;9.88;;;5.60;;
64653;SDS011;51065;48.884;12.598;2023-08-20T06:11:12;8.48;;;4.93;;
64653;SDS011;51065;48.884;12.598;2023-08-20T06:13:37;11.05;;;5.90;;
64653;SDS011;51065;48.884;12.598;2023-08-20T06:16:03;10.40;;;5.90;;
64653;SDS011;51065;48.884;12.598;2023-08-20T06:18:28;9.52;;;5.57;;
64653;SDS011;51065;48.884;12.598;2023-08-20T06:20:54;10.07;;;5.53;;
64653;SDS011;51065;48.884;12.598;2023-08-20T06:23:19;8.57;;;5.15;;
64653;SDS011;51065;48.884;12.598;2023-08-20T06:25:45;10.05;;;5.30;;
64653;SDS011;51065;48.884;12.598;2023-08-20T06:28:11;8.55;;;5.15;;
64653;SDS011;51065;48.884;12.598;2023-08-20T06:30:37;10.85;;;5.57;;
64653;SDS011;51065;48.884;12.598;2023-08-20T06:33:02;10.80;;;5.57;;
64653;SDS011;51065;48.884;12.598;2023-08-20T06:35:28;9.52;;;5.28;;
64653;SDS011;51065;48.884;12.598;2023-08-20T06:37:54;8.68;;;5.63;;
64653;SDS011;51065;48.884;12.598;2023-08-20T06:40:19;10.35;;;5.53;;
64653;SDS011;51065;48.884;12.598;2023-08-20T06:42:45;7.95;;;5.22;;
64653;SDS011;51065;48.884;12.598;2023-08-20T06:45:10;10.10;;;5.32;;
64653;SDS011;51065;48.884;12.598;2023-08-20T06:47:36;9.45;;;5.22;;
64653;SDS011;51065;48.884;12.598;2023-08-20T06:50:02;9.60;;;5.45;;
64653;SDS011;51065;48.884;12.598;2023-08-20T06:52:31;12.50;;;6.03;;
64653;SDS011;51065;48.884;12.598;2023-08-20T06:54:56;9.95;;;5.88;;
64653;SDS011;51065;48.884;12.598;2023-08-20T06:57:22;10.32;;;5.93;;
64653;SDS011;51065;48.884;12.598;2023-08-20T06:59:48;11.43;;;5.63;;
64653;SDS011;51065;48.884;12.598;2023-08-20T07:02:13;7.88;;;5.50;;
64653;SDS011;51065;48.884;12.598;2023-08-20T07:04:39;9.50;;;5.50;;
64653;SDS011;51065;48.884;12.598;2023-08-20T07:07:04;8.65;;;5.28;;
64653;SDS011;51065;48.884;12.598;2023-08-20T07:09:30;8.30;;;5.22;;
64653;SDS011;51065;48.884;12.598;2023-08-20T07:11:56;6.97;;;4.78;;
64653;SDS011;51065;48.884;12.598;2023-08-20T07:14:21;10.65;;;5.32;;
64653;SDS011;51065;48.884;12.598;2023-08-20T07:16:47;10.68;;;5.13;;
64653;SDS011;51065;48.884;12.598;2023-08-20T07:19:13;7.63;;;4.80;;
64653;SDS011;51065;48.884;12.598;2023-08-20T07:21:38;11.45;;;5.65;;
64653;SDS011;51065;48.884;12.598;2023-08-20T07:24:04;8.25;;;5.20;;
64653;SDS011;51065;48.884;12.598;2023-08-20T07:26:29;10.27;;;5.53;;
64653;SDS011;51065;48.884;12.598;2023-08-20T07:28:55;8.48;;;5.07;;
64653;SDS011;51065;48.884;12.598;2023-08-20T07:31:25;9.90;;;5.20;;
64653;SDS011;51065;48.884;12.598;2023-08-20T07:33:55;9.32;;;5.25;;
64653;SDS011;51065;48.884;12.598;2023-08-20T07:36:21;8.75;;;5.75;;
64653;SDS011;51065;48.884;12.598;2023-08-20T07:38:48;8.60;;;5.22;;
64653;SDS011;51065;48.884;12.598;2023-08-20T07:41:14;10.95;;;5.47;;
64653;SDS011;51065;48.884;12.598;2023-08-20T07:43:40;10.25;;;5.70;;
64653;SDS011;51065;48.884;12.598;2023-08-20T07:46:07;9.88;;;5.25;;
64653;SDS011;51065;48.884;12.598;2023-08-20T07:48:33;8.63;;;5.18;;
64653;SDS011;51065;48.884;12.598;2023-08-20T07:50:59;8.57;;;5.20;;
64653;SDS011;51065;48.884;12.598;2023-08-20T07:53:25;11.25;;;6.00;;
64653;SDS011;51065;48.884;12.598;2023-08-20T07:55:51;10.18;;;5.30;;
64653;SDS011;51065;48.884;12.598;2023-08-20T07:58:16;8.70;;;5.13;;
64653;SDS011;51065;48.884;12.598;2023-08-20T08:00:45;8.57;;;4.97;;
64653;SDS011;51065;48.884;12.598;2023-08-20T08:03:10;11.25;;;5.25;;
64653;SDS011;51065;48.884;12.598;2023-08-20T08:05:36;7.30;;;5.10;;
64653;SDS011;51065;48.884;12.598;2023-08-20T08:08:02;9.02;;;5.18;;
64653;SDS011;51065;48.884;12.598;2023-08-20T08:10:28;7.20;;;4.60;;
64653;SDS011;51065;48.884;12.598;2023-08-20T08:12:54;9.05;;;5.53;;
64653;SDS011;51065;48.884;12.598;2023-08-20T08:15:19;8.18;;;5.00;;
64653;SDS011;51065;48.884;12.598;2023-08-20T08:17:45;8.52;;;4.97;;
64653;SDS011;51065;48.884;12.598;2023-08-20T08:20:10;9.68;;;5.00;;
64653;SDS011;51065;48.884;12.598;2023-08-20T08:22:36;8.68;;;5.20;;
64653;SDS011;51065;48.884;12.598;2023-08-20T08:25:02;7.78;;;4.82;;
64653;SDS011;51065;48.884;12.598;2023-08-20T08:27:30;7.32;;;4.68;;
64653;SDS011;51065;48.884;12.598;2023-08-20T08:29:56;8.55;;;4.93;;
64653;SDS011;51065;48.884;12.598;2023-08-20T08:32:21;8.43;;;4.88;;
64653;SDS011;51065;48.884;12.598;2023-08-20T08:34:47;7.00;;;4.68;;
64653;SDS011;51065;48.884;12.598;2023-08-20T08:37:12;7.50;;;4.70;;
64653;SDS011;51065;48.884;12.598;2023-08-20T08:39:38;6.93;;;4.55;;
64653;SDS011;51065;48.884;12.598;2023-08-20T08:42:04;9.52;;;4.50;;
64653;SDS011;51065;48.884;12.598;2023-08-20T08:44:31;7.82;;;4.38;;
64653;SDS011;51065;48.884;12.598;2023-08-20T08:46:58;6.75;;;4.20;;
64653;SDS011;51065;48.884;12.598;2023-08-20T08:49:24;7.63;;;4.25;;
64653;SDS011;51065;48.884;12.598;2023-08-20T08:51:51;9.48;;;4.90;;
64653;SDS011;51065;48.884;12.598;2023-08-20T08:54:19;7.03;;;4.10;;
64653;SDS011;51065;48.884;12.598;2023-08-20T08:56:45;7.75;;;4.65;;
64653;SDS011;51065;48.884;12.598;2023-08-20T08:59:11;9.68;;;4.55;;
64653;SDS011;51065;48.884;12.598;2023-08-20T09:01:38;6.70;;;4.40;;
64653;SDS011;51065;48.884;12.598;2023-08-20T09:04:06;7.07;;;4.18;;
64653;SDS011;51065;48.884;12.598;2023-08-20T09:06:49;7.97;;;4.00;;
64653;SDS011;51065;48.884;12.598;2023-08-20T09:09:16;9.00;;;4.30;;
64653;SDS011;51065;48.884;12.598;2023-08-20T09:11:42;7.07;;;4.20;;
64653;SDS011;51065;48.884;12.598;2023-08-20T09:14:10;6.55;;;4.05;;
64653;SDS011;51065;48.884;12.598;2023-08-20T09:16:47;5.38;;;3.88;;
64653;SDS011;51065;48.884;12.598;2023-08-20T09:19:19;6.82;;;3.70;;
64653;SDS011;51065;48.884;12.598;2023-08-20T09:21:45;8.27;;;4.20;;
64653;SDS011;51065;48.884;12.598;2023-08-20T09:24:12;9.27;;;4.00;;
64653;SDS011;51065;48.884;12.598;2023-08-20T09:26:38;6.22;;;3.95;;
64653;SDS011;51065;48.884;12.598;2023-08-20T09:29:03;5.72;;;3.67;;
64653;SDS011;51065;48.884;12.598;2023-08-20T09:31:36;7.65;;;4.07;;
64653;SDS011;51065;48.884;12.598;2023-08-20T09:34:03;5.90;;;3.72;;
64653;SDS011;51065;48.884;12.598;2023-08-20T09:36:30;5.07;;;3.97;;
64653;SDS011;51065;48.884;12.598;2023-08-20T09:39:00;6.28;;;4.28;;
64653;SDS011;51065;48.884;12.598;2023-08-20T09:41:26;8.98;;;4.82;;
64653;SDS011;51065;48.884;12.598;2023-08-20T09:43:55;6.57;;;4.03;;
64653;SDS011;51065;48.884;12.598;2023-08-20T09:46:26;7.53;;;4.30;;
64653;SDS011;51065;48.884;12.598;2023-08-20T09:48:53;7.38;;;4.25;;
64653;SDS011;51065;48.884;12.598;2023-08-20T09:51:24;9.02;;;5.00;;
64653;SDS011;51065;48.884;12.598;2023-08-20T09:54:02;6.68;;;4.57;;
64653;SDS011;51065;48.884;12.598;2023-08-20T09:56:39;6.95;;;4.50;;
64653;SDS011;51065;48.884;12.598;2023-08-20T09:59:08;5.18;;;3.95;;
64653;SDS011;51065;48.884;12.598;2023-08-20T10:01:36;5.38;;;4.00;;
64653;SDS011;51065;48.884;12.598;2023-08-20T10:04:02;5.97;;;3.90;;
64653;SDS011;51065;48.884;12.598;2023-08-20T10:06:29;5.85;;;3.90;;
64653;SDS011;51065;48.884;12.598;2023-08-20T10:08:56;7.35;;;4.18;;
64653;SDS011;51065;48.884;12.598;2023-08-20T10:11:23;5.88;;;4.10;;
64653;SDS011;51065;48.884;12.598;2023-08-20T10:13:48;6.90;;;4.10;;
64653;SDS011;51065;48.884;12.598;2023-08-20T10:16:16;6.97;;;4.07;;
64653;SDS011;51065;48.884;12.598;2023-08-20T10:18:46;5.88;;;4.18;;
64653;SDS011;51065;48.884;12.598;2023-08-20T10:21:12;6.15;;;4.15;;
64653;SDS011;51065;48.884;12.598;2023-08-20T10:23:41;6.68;;;4.10;;
64653;SDS011;51065;48.884;12.598;2023-08-20T10:26:10;5.07;;;3.83;;
64653;SDS011;51065;48.884;12.598;2023-08-20T10:28:36;8.63;;;4.22;;
64653;SDS011;51065;48.884;12.598;2023-08-20T10:31:11;6.45;;;4.10;;
64653;SDS011;51065;48.884;12.598;2023-08-20T10:33:39;6.75;;;4.30;;
64653;SDS011;51065;48.884;12.598;2023-08-20T10:38:47;8.52;;;4.20;;
64653;SDS011;51065;48.884;12.598;2023-08-20T10:41:14;4.93;;;3.58;;
64653;SDS011;51065;48.884;12.598;2023-08-20T10:43:46;6.40;;;3.85;;
64653;SDS011;51065;48.884;12.598;2023-08-20T10:46:20;6.97;;;3.72;;
64653;SDS011;51065;48.884;12.598;2023-08-20T10:48:48;6.50;;;4.22;;
64653;SDS011;51065;48.884;12.598;2023-08-20T10:51:17;5.57;;;4.20;;
64653;SDS011;51065;48.884;12.598;2023-08-20T10:56:37;5.35;;;4.00;;
64653;SDS011;51065;48.884;12.598;2023-08-20T11:01:43;6.55;;;4.35;;
64653;SDS011;51065;48.884;12.598;2023-08-20T11:04:10;6.00;;;3.72;;
64653;SDS011;51065;48.884;12.598;2023-08-20T11:06:37;8.05;;;3.90;;
64653;SDS011;51065;48.884;12.598;2023-08-20T11:09:04;6.28;;;4.03;;
64653;SDS011;51065;48.884;12.598;2023-08-20T11:11:30;4.43;;;3.72;;
64653;SDS011;51065;48.884;12.598;2023-08-20T11:13:57;6.32;;;4.20;;
64653;SDS011;51065;48.884;12.598;2023-08-20T11:16:29;4.50;;;3.80;;
64653;SDS011;51065;48.884;12.598;2023-08-20T11:18:55;5.93;;;4.03;;
64653;SDS011;51065;48.884;12.598;2023-08-20T11:21:22;6.07;;;4.10;;
64653;SDS011;51065;48.884;12.598;2023-08-20T11:23:48;5.60;;;3.75;;
64653;SDS011;51065;48.884;12.598;2023-08-20T11:26:13;6.15;;;3.95;;
64653;SDS011;51065;48.884;12.598;2023-08-20T11:28:44;5.03;;;3.80;;
64653;SDS011;51065;48.884;12.598;2023-08-20T11:31:11;6.15;;;3.60;;
64653;SDS011;51065;48.884;12.598;2023-08-20T11:33:37;5.10;;;3.45;;
64653;SDS011;51065;48.884;12.598;2023-08-20T11:36:03;5.00;;;3.70;;
64653;SDS011;51065;48.884;12.598;2023-08-20T11:38:32;4.70;;;3.53;;
64653;SDS011;51065;48.884;12.598;2023-08-20T11:40:58;5.25;;;3.78;;
64653;SDS011;51065;48.884;12.598;2023-08-20T11:43:27;4.65;;;3.47;;
64653;SDS011;51065;48.884;12.598;2023-08-20T11:45:53;7.15;;;3.58;;
64653;SDS011;51065;48.884;12.598;2023-08-20T11:48:19;5.15;;;3.67;;
64653;SDS011;51065;48.884;12.598;2023-08-20T11:50:51;4.88;;;3.58;;
64653;SDS011;51065;48.884;12.598;2023-08-20T11:53:21;4.38;;;3.40;;
64653;SDS011;51065;48.884;12.598;2023-08-20T11:55:50;4.75;;;3.40;;
64653;SDS011;51065;48.884;12.598;2023-08-20T11:58:15;5.13;;;3.33;;
64653;SDS011;51065;48.884;12.598;2023-08-20T12:00:47;5.78;;;2.95;;
64653;SDS011;51065;48.884;12.598;2023-08-20T12:03:14;6.28;;;3.25;;
64653;SDS011;51065;48.884;12.598;2023-08-20T12:05:43;5.50;;;3.40;;
64653;SDS011;51065;48.884;12.598;2023-08-20T12:08:09;4.72;;;3.50;;
64653;SDS011;51065;48.884;12.598;2023-08-20T12:10:41;4.78;;;3.50;;
64653;SDS011;51065;48.884;12.598;2023-08-20T12:13:08;5.38;;;3.40;;
64653;SDS011;51065;48.884;12.598;2023-08-20T12:15:33;5.40;;;3.30;;
64653;SDS011;51065;48.884;12.598;2023-08-20T12:18:00;7.68;;;3.42;;
64653;SDS011;51065;48.884;12.598;2023-08-20T12:20:27;4.13;;;3.30;;
64653;SDS011;51065;48.884;12.598;2023-08-20T12:22:54;5.32;;;3.45;;
64653;SDS011;51065;48.884;12.598;2023-08-20T12:25:19;6.32;;;3.67;;
64653;SDS011;51065;48.884;12.598;2023-08-20T12:27:45;5.80;;;3.38;;
64653;SDS011;51065;48.884;12.598;2023-08-20T12:30:11;7.57;;;3.40;;
64653;SDS011;51065;48.884;12.598;2023-08-20T12:32:37;4.43;;;3.30;;
64653;SDS011;51065;48.884;12.598;2023-08-20T12:35:03;4.30;;;3.00;;
64653;SDS011;51065;48.884;12.598;2023-08-20T12:37:29;6.80;;;3.30;;
64653;SDS011;51065;48.884;12.598;2023-08-20T12:39:55;6.22;;;3.50;;
64653;SDS011;51065;48.884;12.598;2023-08-20T12:42:20;4.93;;;3.25;;
64653;SDS011;51065;48.884;12.598;2023-08-20T12:44:46;6.20;;;3.47;;
64653;SDS011;51065;48.884;12.598;2023-08-20T12:47:11;6.57;;;3.60;;
64653;SDS011;51065;48.884;12.598;2023-08-20T12:49:37;6.05;;;3.17;;
64653;SDS011;51065;48.884;12.598;2023-08-20T12:52:02;5.60;;;3.15;;
64653;SDS011;51065;48.884;12.598;2023-08-20T12:54:28;4.28;;;3.40;;
64653;SDS011;51065;48.884;12.598;2023-08-20T12:56:54;5.05;;;3.10;;
64653;SDS011;51065;48.884;12.598;2023-08-20T12:59:20;3.97;;;3.10;;
64653;SDS011;51065;48.884;12.598;2023-08-20T13:01:45;7.30;;;3.40;;
64653;SDS011;51065;48.884;12.598;2023-08-20T13:04:15;4.50;;;3.03;;
64653;SDS011;51065;48.884;12.598;2023-08-20T13:06:41;5.25;;;2.95;;
64653;SDS011;51065;48.884;12.598;2023-08-20T13:09:07;5.80;;;3.20;;
64653;SDS011;51065;48.884;12.598;2023-08-20T13:11:34;5.82;;;3.20;;
64653;SDS011;51065;48.884;12.598;2023-08-20T13:14:01;3.90;;;2.97;;
64653;SDS011;51065;48.884;12.598;2023-08-20T13:16:27;5.78;;;2.95;;
64653;SDS011;51065;48.884;12.598;2023-08-20T13:18:54;5.45;;;3.17;;
64653;SDS011;51065;48.884;12.598;2023-08-20T13:21:20;6.70;;;2.75;;
64653;SDS011;51065;48.884;12.598;2023-08-20T13:23:46;4.30;;;2.90;;
64653;SDS011;51065;48.884;12.598;2023-08-20T13:26:12;7.32;;;2.65;;
64653;SDS011;51065;48.884;12.598;2023-08-20T13:28:37;3.65;;;2.80;;
64653;SDS011;51065;48.884;12.598;2023-08-20T13:31:03;4.68;;;2.90;;
64653;SDS011;51065;48.884;12.598;2023-08-20T13:33:28;4.80;;;2.78;;
64653;SDS011;51065;48.884;12.598;2023-08-20T13:35:54;7.70;;;2.90;;
64653;SDS011;51065;48.884;12.598;2023-08-20T13:38:21;4.35;;;3.00;;
64653;SDS011;51065;48.884;12.598;2023-08-20T13:40:48;6.45;;;3.22;;
64653;SDS011;51065;48.884;12.598;2023-08-20T13:43:14;5.25;;;2.92;;
64653;SDS011;51065;48.884;12.598;2023-08-20T13:45:39;4.70;;;2.83;;
64653;SDS011;51065;48.884;12.598;2023-08-20T13:48:05;4.63;;;2.83;;
64653;SDS011;51065;48.884;12.598;2023-08-20T13:50:31;3.63;;;2.65;;
64653;SDS011;51065;48.884;12.598;2023-08-20T13:52:56;5.80;;;2.83;;
64653;SDS011;51065;48.884;12.598;2023-08-20T13:55:22;3.80;;;2.65;;
64653;SDS011;51065;48.884;12.598;2023-08-20T13:57:47;3.83;;;2.60;;
64653;SDS011;51065;48.884;12.598;2023-08-20T14:00:13;5.47;;;3.13;;
64653;SDS011;51065;48.884;12.598;2023-08-20T14:02:39;3.78;;;2.70;;
64653;SDS011;51065;48.884;12.598;2023-08-20T14:05:05;4.93;;;2.95;;
64653;SDS011;51065;48.884;12.598;2023-08-20T14:07:31;5.80;;;2.90;;
64653;SDS011;51065;48.884;12.598;2023-08-20T14:10:00;5.03;;;2.95;;
64653;SDS011;51065;48.884;12.598;2023-08-20T14:12:29;5.50;;;3.10;;
64653;SDS011;51065;48.884;12.598;2023-08-20T14:14:55;7.80;;;3.10;;
64653;SDS011;51065;48.884;12.598;2023-08-20T14:17:21;6.72;;;2.83;;
64653;SDS011;51065;48.884;12.598;2023-08-20T14:19:46;3.33;;;2.90;;
64653;SDS011;51065;48.884;12.598;2023-08-20T14:22:12;6.20;;;2.83;;
64653;SDS011;51065;48.884;12.598;2023-08-20T14:24:37;5.43;;;3.05;;
64653;SDS011;51065;48.884;12.598;2023-08-20T14:27:03;4.35;;;2.70;;
64653;SDS011;51065;48.884;12.598;2023-08-20T14:29:29;6.30;;;2.92;;
64653;SDS011;51065;48.884;12.598;2023-08-20T14:31:54;5.18;;;2.78;;
64653;SDS011;51065;48.884;12.598;2023-08-20T14:34:20;4.35;;;2.70;;
64653;SDS011;51065;48.884;12.598;2023-08-20T14:36:45;4.25;;;2.80;;
64653;SDS011;51065;48.884;12.598;2023-08-20T14:39:11;4.88;;;3.00;;
64653;SDS011;51065;48.884;12.598;2023-08-20T14:41:36;7.28;;;3.45;;
64653;SDS011;51065;48.884;12.598;2023-08-20T14:44:02;8.48;;;3.10;;